sensor_id;sensor_type;location;lat;lon;timestamp;pressure;altitude;pressure_sealevel;temperature;humidity
13434;BME280;6789;47.678;9.158;2023-03-21T00:01:33;97023.97;;;7.83;96.59
13434;BME280;6789;47.678;9.158;2023-03-21T00:07:00;97013.31;;;7.72;98.82
13434;BME280;6789;47.678;9.158;2023-03-21T00:12:56;97010.91;;;7.71;100.00
13434;BME280;6789;47.678;9.158;2023-03-21T00:18:08;97011.50;;;7.66;99.86
13434;BME280;6789;47.678;9.158;2023-03-21T00:23:15;97004.06;;;7.63;100.00
13434;BME280;6789;47.678;9.158;2023-03-21T00:28:07;96996.63;;;7.60;100.00
13434;BME280;6789;47.678;9.158;2023-03-21T00:32:59;96985.00;;;7.56;100.00
13434;BME280;6789;47.678;9.158;2023-03-21T00:38:02;96981.78;;;7.54;100.00
13434;BME280;6789;47.678;9.158;2023-03-21T00:42:58;96971.16;;;7.56;100.00
13434;BME280;6789;47.678;9.158;2023-03-21T00:47:49;96978.97;;;7.56;100.00
13434;BME280;6789;47.678;9.158;2023-03-21T00:52:41;96974.56;;;7.56;100.00
13434;BME280;6789;47.678;9.158;2023-03-21T00:57:33;96980.19;;;7.53;100.00
13434;BME280;6789;47.678;9.158;2023-03-21T01:02:30;96972.75;;;7.50;100.00
13434;BME280;6789;47.678;9.158;2023-03-21T01:07:22;96969.13;;;7.51;100.00
13434;BME280;6789;47.678;9.158;2023-03-21T01:12:13;96958.13;;;7.56;100.00
13434;BME280;6789;47.678;9.158;2023-03-21T01:17:05;96956.50;;;7.55;100.00
13434;BME280;6789;47.678;9.158;2023-03-21T01:21:57;96964.91;;;7.57;100.00
13434;BME280;6789;47.678;9.158;2023-03-21T01:26:49;96955.69;;;7.54;100.00
13434;BME280;6789;47.678;9.158;2023-03-21T01:31:41;96956.88;;;7.45;100.00
13434;BME280;6789;47.678;9.158;2023-03-21T01:36:32;96952.84;;;7.36;100.00
13434;BME280;6789;47.678;9.158;2023-03-21T01:41:34;96957.44;;;7.28;100.00
13434;BME280;6789;47.678;9.158;2023-03-21T01:46:54;96942.81;;;7.20;100.00
13434;BME280;6789;47.678;9.158;2023-03-21T01:52:10;96946.78;;;7.10;100.00
13434;BME280;6789;47.678;9.158;2023-03-21T01:57:37;96939.75;;;7.04;100.00
13434;BME280;6789;47.678;9.158;2023-03-21T02:02:47;96944.75;;;7.06;100.00
13434;BME280;6789;47.678;9.158;2023-03-21T02:07:43;96938.72;;;6.99;100.00
13434;BME280;6789;47.678;9.158;2023-03-21T02:12:35;96937.53;;;6.95;100.00
13434;BME280;6789;47.678;9.158;2023-03-21T02:17:40;96932.50;;;6.93;100.00
13434;BME280;6789;47.678;9.158;2023-03-21T02:28:06;96925.84;;;6.78;100.00
13434;BME280;6789;47.678;9.158;2023-03-21T02:33:40;96924.25;;;6.77;100.00
13434;BME280;6789;47.678;9.158;2023-03-21T02:38:58;96924.25;;;6.77;100.00
13434;BME280;6789;47.678;9.158;2023-03-21T02:44:06;96924.03;;;6.72;100.00
13434;BME280;6789;47.678;9.158;2023-03-21T02:54:04;96918.00;;;6.71;100.00
13434;BME280;6789;47.678;9.158;2023-03-21T02:59:21;96906.56;;;6.66;100.00
13434;BME280;6789;47.678;9.158;2023-03-21T03:04:24;96902.16;;;6.60;100.00
13434;BME280;6789;47.678;9.158;2023-03-21T03:20:44;96918.16;;;6.57;100.00
13434;BME280;6789;47.678;9.158;2023-03-21T03:26:07;96917.78;;;6.66;100.00
13434;BME280;6789;47.678;9.158;2023-03-21T03:31:00;96919.09;;;6.43;100.00
13434;BME280;6789;47.678;9.158;2023-03-21T03:36:01;96917.03;;;6.32;100.00
13434;BME280;6789;47.678;9.158;2023-03-21T03:41:11;96918.44;;;6.28;100.00
13434;BME280;6789;47.678;9.158;2023-03-21T03:46:19;96907.53;;;6.18;100.00
13434;BME280;6789;47.678;9.158;2023-03-21T03:51:35;96917.31;;;6.10;100.00
13434;BME280;6789;47.678;9.158;2023-03-21T03:56:30;96918.09;;;6.04;100.00
13434;BME280;6789;47.678;9.158;2023-03-21T04:01:22;96912.66;;;5.99;100.00
13434;BME280;6789;47.678;9.158;2023-03-21T04:06:15;96903.38;;;5.90;100.00
13434;BME280;6789;47.678;9.158;2023-03-21T04:11:08;96914.38;;;5.85;100.00
13434;BME280;6789;47.678;9.158;2023-03-21T04:16:00;96913.34;;;5.86;100.00
13434;BME280;6789;47.678;9.158;2023-03-21T04:20:53;96900.41;;;5.93;100.00
13434;BME280;6789;47.678;9.158;2023-03-21T04:25:49;96902.19;;;5.92;100.00
13434;BME280;6789;47.678;9.158;2023-03-21T04:30:59;96895.84;;;6.01;100.00
13434;BME280;6789;47.678;9.158;2023-03-21T04:35:59;96896.28;;;6.11;100.00
13434;BME280;6789;47.678;9.158;2023-03-21T04:40:55;96904.09;;;6.11;100.00
13434;BME280;6789;47.678;9.158;2023-03-21T04:45:50;96906.34;;;6.21;100.00
13434;BME280;6789;47.678;9.158;2023-03-21T04:50:57;96907.59;;;6.25;100.00
13434;BME280;6789;47.678;9.158;2023-03-21T04:56:33;96910.84;;;6.33;100.00
13434;BME280;6789;47.678;9.158;2023-03-21T05:02:15;96909.28;;;6.38;100.00
13434;BME280;6789;47.678;9.158;2023-03-21T05:07:07;96897.94;;;6.59;100.00
13434;BME280;6789;47.678;9.158;2023-03-21T05:11:59;96903.31;;;6.57;100.00
13434;BME280;6789;47.678;9.158;2023-03-21T05:16:51;96898.28;;;6.49;100.00
13434;BME280;6789;47.678;9.158;2023-03-21T05:21:48;96903.28;;;6.44;100.00
13434;BME280;6789;47.678;9.158;2023-03-21T05:26:43;96895.69;;;6.56;100.00
13434;BME280;6789;47.678;9.158;2023-03-21T05:31:36;96888.28;;;6.53;100.00
13434;BME280;6789;47.678;9.158;2023-03-21T05:36:28;96887.28;;;6.54;100.00
13434;BME280;6789;47.678;9.158;2023-03-21T05:41:20;96895.91;;;6.61;100.00
13434;BME280;6789;47.678;9.158;2023-03-21T05:46:12;96889.75;;;6.68;100.00
13434;BME280;6789;47.678;9.158;2023-03-21T05:51:05;96906.38;;;6.74;100.00
13434;BME280;6789;47.678;9.158;2023-03-21T05:56:11;96903.59;;;6.82;100.00
13434;BME280;6789;47.678;9.158;2023-03-21T06:01:03;96904.63;;;6.94;100.00
13434;BME280;6789;47.678;9.158;2023-03-21T06:05:57;96908.44;;;6.98;100.00
13434;BME280;6789;47.678;9.158;2023-03-21T06:10:49;96912.91;;;7.10;100.00
13434;BME280;6789;47.678;9.158;2023-03-21T06:15:55;96907.50;;;7.24;100.00
13434;BME280;6789;47.678;9.158;2023-03-21T06:20:51;96908.34;;;7.38;100.00
13434;BME280;6789;47.678;9.158;2023-03-21T06:25:42;96911.13;;;7.49;100.00
13434;BME280;6789;47.678;9.158;2023-03-21T06:30:35;96910.72;;;7.59;100.00
13434;BME280;6789;47.678;9.158;2023-03-21T06:35:29;96913.53;;;7.64;100.00
13434;BME280;6789;47.678;9.158;2023-03-21T06:40:21;96921.16;;;7.84;100.00
13434;BME280;6789;47.678;9.158;2023-03-21T06:45:13;96918.31;;;7.99;100.00
13434;BME280;6789;47.678;9.158;2023-03-21T06:50:17;96915.31;;;8.28;100.00
13434;BME280;6789;47.678;9.158;2023-03-21T06:55:24;96925.69;;;8.41;100.00
13434;BME280;6789;47.678;9.158;2023-03-21T07:00:19;96926.69;;;8.46;100.00
13434;BME280;6789;47.678;9.158;2023-03-21T07:05:26;96931.47;;;8.55;100.00
13434;BME280;6789;47.678;9.158;2023-03-21T07:10:32;96926.59;;;8.65;100.00
13434;BME280;6789;47.678;9.158;2023-03-21T07:15:24;96924.66;;;8.98;100.00
13434;BME280;6789;47.678;9.158;2023-03-21T07:20:17;96926.69;;;9.27;100.00
13434;BME280;6789;47.678;9.158;2023-03-21T07:25:17;96918.94;;;9.93;96.76
13434;BME280;6789;47.678;9.158;2023-03-21T07:30:14;96913.78;;;10.29;94.22
13434;BME280;6789;47.678;9.158;2023-03-21T07:35:11;96910.59;;;10.63;92.50
13434;BME280;6789;47.678;9.158;2023-03-21T07:40:09;96915.72;;;10.87;90.86
13434;BME280;6789;47.678;9.158;2023-03-21T07:45:18;96909.22;;;11.19;90.47
13434;BME280;6789;47.678;9.158;2023-03-21T07:50:29;96908.34;;;11.54;89.10
13434;BME280;6789;47.678;9.158;2023-03-21T07:55:35;96906.13;;;11.92;86.02
13434;BME280;6789;47.678;9.158;2023-03-21T08:00:35;96907.38;;;12.12;85.23
13434;BME280;6789;47.678;9.158;2023-03-21T08:05:41;96897.75;;;12.29;83.91
13434;BME280;6789;47.678;9.158;2023-03-21T08:10:35;96895.59;;;12.26;82.62
13434;BME280;6789;47.678;9.158;2023-03-21T08:15:35;96902.22;;;12.17;80.91
13434;BME280;6789;47.678;9.158;2023-03-21T08:20:42;96902.56;;;11.87;82.20
13434;BME280;6789;47.678;9.158;2023-03-21T08:25:35;96905.75;;;11.77;82.39
13434;BME280;6789;47.678;9.158;2023-03-21T08:30:28;96896.13;;;11.71;82.60
13434;BME280;6789;47.678;9.158;2023-03-21T08:35:24;96896.63;;;11.68;83.71
13434;BME280;6789;47.678;9.158;2023-03-21T08:40:22;96892.41;;;12.02;80.41
13434;BME280;6789;47.678;9.158;2023-03-21T08:45:18;96881.19;;;12.17;79.03
13434;BME280;6789;47.678;9.158;2023-03-21T08:50:16;96886.19;;;12.19;78.91
13434;BME280;6789;47.678;9.158;2023-03-21T08:55:26;96889.84;;;12.41;77.83
13434;BME280;6789;47.678;9.158;2023-03-21T09:00:22;96887.50;;;12.67;77.38
13434;BME280;6789;47.678;9.158;2023-03-21T09:05:14;96875.00;;;13.13;72.62
13434;BME280;6789;47.678;9.158;2023-03-21T09:10:11;96878.03;;;13.66;70.29
13434;BME280;6789;47.678;9.158;2023-03-21T09:15:13;96874.25;;;13.46;69.89
13434;BME280;6789;47.678;9.158;2023-03-21T09:20:05;96872.75;;;13.82;68.07
13434;BME280;6789;47.678;9.158;2023-03-21T09:25:02;96869.38;;;14.03;66.74
13434;BME280;6789;47.678;9.158;2023-03-21T09:30:01;96864.88;;;14.20;65.91
13434;BME280;6789;47.678;9.158;2023-03-21T09:35:17;96866.78;;;14.41;64.73
13434;BME280;6789;47.678;9.158;2023-03-21T09:40:38;96861.47;;;14.20;65.80
13434;BME280;6789;47.678;9.158;2023-03-21T09:51:04;96861.69;;;14.56;66.42
13434;BME280;6789;47.678;9.158;2023-03-21T09:56:14;96868.69;;;14.45;65.43
13434;BME280;6789;47.678;9.158;2023-03-21T10:01:18;96861.19;;;14.37;66.41
13434;BME280;6789;47.678;9.158;2023-03-21T10:06:19;96852.22;;;14.38;66.40
13434;BME280;6789;47.678;9.158;2023-03-21T10:11:27;96851.78;;;14.89;65.64
13434;BME280;6789;47.678;9.158;2023-03-21T10:16:30;96846.81;;;15.19;64.04
13434;BME280;6789;47.678;9.158;2023-03-21T10:21:27;96847.03;;;15.39;63.20
13434;BME280;6789;47.678;9.158;2023-03-21T10:26:39;96836.59;;;15.90;61.31
13434;BME280;6789;47.678;9.158;2023-03-21T10:31:32;96830.56;;;15.94;60.63
13434;BME280;6789;47.678;9.158;2023-03-21T10:36:38;96836.84;;;15.83;59.88
13434;BME280;6789;47.678;9.158;2023-03-21T10:41:32;96837.16;;;15.61;60.44
13434;BME280;6789;47.678;9.158;2023-03-21T10:46:33;96837.84;;;15.46;60.21
13434;BME280;6789;47.678;9.158;2023-03-21T10:51:40;96824.84;;;15.40;61.14
13434;BME280;6789;47.678;9.158;2023-03-21T10:56:54;96839.66;;;15.41;61.38
13434;BME280;6789;47.678;9.158;2023-03-21T11:01:54;96842.75;;;15.64;60.88
13434;BME280;6789;47.678;9.158;2023-03-21T11:07:02;96824.34;;;15.74;60.42
13434;BME280;6789;47.678;9.158;2023-03-21T11:12:11;96832.75;;;15.71;59.15
13434;BME280;6789;47.678;9.158;2023-03-21T11:22:29;96830.34;;;15.65;60.20
13434;BME280;6789;47.678;9.158;2023-03-21T11:27:54;96822.34;;;15.60;61.14
13434;BME280;6789;47.678;9.158;2023-03-21T11:32:55;96812.97;;;16.25;58.49
13434;BME280;6789;47.678;9.158;2023-03-21T11:37:54;96805.72;;;16.46;58.08
13434;BME280;6789;47.678;9.158;2023-03-21T11:43:34;96799.38;;;15.96;57.88
13434;BME280;6789;47.678;9.158;2023-03-21T11:48:28;96796.06;;;15.79;58.50
13434;BME280;6789;47.678;9.158;2023-03-21T11:59:23;96783.28;;;16.13;57.28
13434;BME280;6789;47.678;9.158;2023-03-21T12:05:10;96776.34;;;16.48;56.30
13434;BME280;6789;47.678;9.158;2023-03-21T12:10:30;96767.41;;;16.69;56.26
13434;BME280;6789;47.678;9.158;2023-03-21T12:15:42;96756.53;;;16.65;55.74
13434;BME280;6789;47.678;9.158;2023-03-21T12:20:52;96746.72;;;16.51;56.08
13434;BME280;6789;47.678;9.158;2023-03-21T12:48:21;96712.91;;;17.37;52.85
13434;BME280;6789;47.678;9.158;2023-03-21T12:59:36;96704.88;;;17.77;51.92
13434;BME280;6789;47.678;9.158;2023-03-21T13:10:18;96692.00;;;18.24;50.50
13434;BME280;6789;47.678;9.158;2023-03-21T13:20:52;96685.66;;;18.20;49.76
13434;BME280;6789;47.678;9.158;2023-03-21T13:26:00;96685.53;;;18.45;49.27
13434;BME280;6789;47.678;9.158;2023-03-21T13:31:26;96683.97;;;18.34;49.83
13434;BME280;6789;47.678;9.158;2023-03-21T13:36:35;96676.06;;;18.14;49.35
13434;BME280;6789;47.678;9.158;2023-03-21T13:41:38;96669.78;;;18.00;49.40
13434;BME280;6789;47.678;9.158;2023-03-21T13:46:58;96657.78;;;18.22;49.79
13434;BME280;6789;47.678;9.158;2023-03-21T13:57:37;96654.72;;;18.44;48.64
13434;BME280;6789;47.678;9.158;2023-03-21T14:02:32;96650.75;;;18.41;49.00
13434;BME280;6789;47.678;9.158;2023-03-21T14:07:33;96636.28;;;18.09;49.00
13434;BME280;6789;47.678;9.158;2023-03-21T14:12:43;96642.69;;;18.03;48.70
13434;BME280;6789;47.678;9.158;2023-03-21T14:17:53;96642.44;;;17.99;47.61
13434;BME280;6789;47.678;9.158;2023-03-21T14:22:59;96629.09;;;18.14;49.49
13434;BME280;6789;47.678;9.158;2023-03-21T14:28:23;96624.84;;;18.13;50.81
13434;BME280;6789;47.678;9.158;2023-03-21T14:33:47;96621.44;;;18.03;50.65
13434;BME280;6789;47.678;9.158;2023-03-21T14:39:20;96616.22;;;17.93;50.97
13434;BME280;6789;47.678;9.158;2023-03-21T14:44:38;96611.47;;;17.85;50.52
13434;BME280;6789;47.678;9.158;2023-03-21T14:49:44;96605.47;;;17.50;51.34
13434;BME280;6789;47.678;9.158;2023-03-21T14:54:44;96613.72;;;17.43;50.88
13434;BME280;6789;47.678;9.158;2023-03-21T14:59:40;96612.00;;;17.77;49.99
13434;BME280;6789;47.678;9.158;2023-03-21T15:04:53;96605.06;;;17.91;50.35
13434;BME280;6789;47.678;9.158;2023-03-21T15:10:15;96607.25;;;17.79;50.46
13434;BME280;6789;47.678;9.158;2023-03-21T15:15:14;96600.75;;;17.42;50.82
13434;BME280;6789;47.678;9.158;2023-03-21T15:20:31;96604.69;;;17.49;50.39
13434;BME280;6789;47.678;9.158;2023-03-21T15:25:38;96596.22;;;17.47;48.53
13434;BME280;6789;47.678;9.158;2023-03-21T15:30:50;96599.69;;;17.38;47.89
13434;BME280;6789;47.678;9.158;2023-03-21T15:35:58;96590.16;;;17.22;51.75
13434;BME280;6789;47.678;9.158;2023-03-21T15:52:02;96612.72;;;17.00;45.76
13434;BME280;6789;47.678;9.158;2023-03-21T15:57:30;96606.91;;;16.83;46.44
13434;BME280;6789;47.678;9.158;2023-03-21T16:02:52;96609.53;;;16.78;46.72
13434;BME280;6789;47.678;9.158;2023-03-21T16:07:46;96614.06;;;16.72;47.42
13434;BME280;6789;47.678;9.158;2023-03-21T16:12:37;96606.38;;;16.66;50.33
13434;BME280;6789;47.678;9.158;2023-03-21T16:17:33;96618.03;;;16.55;53.39
13434;BME280;6789;47.678;9.158;2023-03-21T16:22:30;96602.06;;;16.25;54.98
13434;BME280;6789;47.678;9.158;2023-03-21T16:27:25;96610.81;;;16.26;55.05
13434;BME280;6789;47.678;9.158;2023-03-21T16:32:24;96606.25;;;16.01;56.80
13434;BME280;6789;47.678;9.158;2023-03-21T16:37:16;96608.72;;;15.47;58.91
13434;BME280;6789;47.678;9.158;2023-03-21T16:42:12;96615.06;;;15.09;60.58
13434;BME280;6789;47.678;9.158;2023-03-21T16:47:16;96616.06;;;15.03;60.88
13434;BME280;6789;47.678;9.158;2023-03-21T16:52:11;96626.09;;;14.65;62.64
13434;BME280;6789;47.678;9.158;2023-03-21T16:57:06;96624.91;;;14.51;63.56
13434;BME280;6789;47.678;9.158;2023-03-21T17:01:58;96630.28;;;14.35;65.07
13434;BME280;6789;47.678;9.158;2023-03-21T17:06:53;96625.38;;;13.96;66.70
13434;BME280;6789;47.678;9.158;2023-03-21T17:11:46;96624.97;;;13.82;67.56
13434;BME280;6789;47.678;9.158;2023-03-21T17:16:39;96623.00;;;13.73;68.44
13434;BME280;6789;47.678;9.158;2023-03-21T17:21:33;96632.28;;;13.75;68.58
13434;BME280;6789;47.678;9.158;2023-03-21T17:26:27;96636.66;;;13.70;68.32
13434;BME280;6789;47.678;9.158;2023-03-21T17:31:21;96644.88;;;13.52;70.23
13434;BME280;6789;47.678;9.158;2023-03-21T17:36:31;96641.50;;;13.35;71.62
13434;BME280;6789;47.678;9.158;2023-03-21T17:41:31;96649.25;;;13.09;71.55
13434;BME280;6789;47.678;9.158;2023-03-21T17:46:25;96648.81;;;12.95;72.16
13434;BME280;6789;47.678;9.158;2023-03-21T17:51:18;96652.31;;;12.84;72.81
13434;BME280;6789;47.678;9.158;2023-03-21T17:56:19;96649.09;;;12.82;73.53
13434;BME280;6789;47.678;9.158;2023-03-21T18:01:11;96650.38;;;12.80;74.65
13434;BME280;6789;47.678;9.158;2023-03-21T18:06:04;96653.25;;;12.79;74.21
13434;BME280;6789;47.678;9.158;2023-03-21T18:10:56;96660.25;;;12.73;75.17
13434;BME280;6789;47.678;9.158;2023-03-21T18:15:48;96664.75;;;12.73;75.38
13434;BME280;6789;47.678;9.158;2023-03-21T18:20:41;96666.09;;;12.59;75.08
13434;BME280;6789;47.678;9.158;2023-03-21T18:25:44;96671.50;;;12.52;75.69
13434;BME280;6789;47.678;9.158;2023-03-21T18:30:38;96668.56;;;12.49;75.96
13434;BME280;6789;47.678;9.158;2023-03-21T18:35:50;96666.06;;;12.42;76.70
13434;BME280;6789;47.678;9.158;2023-03-21T18:40:49;96666.09;;;12.31;77.14
13434;BME280;6789;47.678;9.158;2023-03-21T18:45:41;96674.50;;;12.16;77.57
13434;BME280;6789;47.678;9.158;2023-03-21T18:50:33;96677.22;;;12.05;79.11
13434;BME280;6789;47.678;9.158;2023-03-21T18:55:26;96688.66;;;11.99;79.43
13434;BME280;6789;47.678;9.158;2023-03-21T19:00:36;96691.06;;;11.89;79.43
13434;BME280;6789;47.678;9.158;2023-03-21T19:05:31;96685.72;;;11.84;80.50
13434;BME280;6789;47.678;9.158;2023-03-21T19:10:23;96676.16;;;11.78;79.90
13434;BME280;6789;47.678;9.158;2023-03-21T19:15:17;96684.47;;;11.75;80.17
13434;BME280;6789;47.678;9.158;2023-03-21T19:20:11;96680.38;;;11.68;80.50
13434;BME280;6789;47.678;9.158;2023-03-21T19:25:05;96681.31;;;11.62;81.01
13434;BME280;6789;47.678;9.158;2023-03-21T19:29:58;96684.63;;;11.57;81.74
13434;BME280;6789;47.678;9.158;2023-03-21T19:35:06;96683.38;;;11.60;81.93
13434;BME280;6789;47.678;9.158;2023-03-21T19:39:59;96685.66;;;11.56;81.97
13434;BME280;6789;47.678;9.158;2023-03-21T19:44:51;96685.56;;;11.51;82.63
13434;BME280;6789;47.678;9.158;2023-03-21T19:49:43;96690.91;;;11.45;83.07
13434;BME280;6789;47.678;9.158;2023-03-21T19:54:54;96686.34;;;11.40;83.65
13434;BME280;6789;47.678;9.158;2023-03-21T19:59:46;96683.28;;;11.43;83.72
13434;BME280;6789;47.678;9.158;2023-03-21T20:04:44;96687.38;;;11.39;83.80
13434;BME280;6789;47.678;9.158;2023-03-21T20:09:36;96693.09;;;11.37;83.79
13434;BME280;6789;47.678;9.158;2023-03-21T20:14:42;96688.38;;;11.38;84.05
13434;BME280;6789;47.678;9.158;2023-03-21T20:19:39;96683.72;;;11.40;84.31
13434;BME280;6789;47.678;9.158;2023-03-21T20:24:31;96692.16;;;11.42;84.58
13434;BME280;6789;47.678;9.158;2023-03-21T20:29:24;96697.44;;;11.42;84.77
13434;BME280;6789;47.678;9.158;2023-03-21T20:34:36;96694.22;;;11.40;84.88
13434;BME280;6789;47.678;9.158;2023-03-21T20:39:28;96688.63;;;11.37;85.38
13434;BME280;6789;47.678;9.158;2023-03-21T20:44:20;96690.38;;;11.32;86.02
13434;BME280;6789;47.678;9.158;2023-03-21T20:49:32;96689.53;;;11.20;86.20
13434;BME280;6789;47.678;9.158;2023-03-21T20:54:24;96682.81;;;11.12;86.55
13434;BME280;6789;47.678;9.158;2023-03-21T20:59:16;96689.66;;;11.02;86.91
13434;BME280;6789;47.678;9.158;2023-03-21T21:04:18;96685.56;;;10.94;86.97
13434;BME280;6789;47.678;9.158;2023-03-21T21:09:11;96677.91;;;10.93;87.29
13434;BME280;6789;47.678;9.158;2023-03-21T21:14:03;96691.94;;;10.87;88.20
13434;BME280;6789;47.678;9.158;2023-03-21T21:18:55;96680.28;;;10.83;88.41
13434;BME280;6789;47.678;9.158;2023-03-21T21:23:48;96680.41;;;10.76;89.58
13434;BME280;6789;47.678;9.158;2023-03-21T21:28:39;96689.19;;;10.70;89.90
13434;BME280;6789;47.678;9.158;2023-03-21T21:33:34;96677.19;;;10.63;89.74
13434;BME280;6789;47.678;9.158;2023-03-21T21:38:29;96671.25;;;10.56;90.38
13434;BME280;6789;47.678;9.158;2023-03-21T21:43:21;96669.66;;;10.55;90.81
13434;BME280;6789;47.678;9.158;2023-03-21T21:48:14;96675.31;;;10.52;91.15
13434;BME280;6789;47.678;9.158;2023-03-21T21:53:06;96676.34;;;10.51;91.00
13434;BME280;6789;47.678;9.158;2023-03-21T21:58:01;96672.94;;;10.51;90.98
13434;BME280;6789;47.678;9.158;2023-03-21T22:02:54;96667.09;;;10.49;91.34
13434;BME280;6789;47.678;9.158;2023-03-21T22:07:52;96662.09;;;10.47;91.78
13434;BME280;6789;47.678;9.158;2023-03-21T22:12:44;96662.78;;;10.43;91.91
13434;BME280;6789;47.678;9.158;2023-03-21T22:17:39;96668.25;;;10.41;92.46
13434;BME280;6789;47.678;9.158;2023-03-21T22:22:36;96666.88;;;10.39;93.18
13434;BME280;6789;47.678;9.158;2023-03-21T22:27:28;96673.47;;;10.41;93.29
13434;BME280;6789;47.678;9.158;2023-03-21T22:32:22;96677.94;;;10.41;93.07
13434;BME280;6789;47.678;9.158;2023-03-21T22:37:13;96673.47;;;10.41;93.18
13434;BME280;6789;47.678;9.158;2023-03-21T22:42:05;96671.56;;;10.48;93.42
13434;BME280;6789;47.678;9.158;2023-03-21T22:46:57;96669.25;;;10.40;93.71
13434;BME280;6789;47.678;9.158;2023-03-21T22:51:49;96670.63;;;10.43;94.07
13434;BME280;6789;47.678;9.158;2023-03-21T22:56:56;96675.22;;;10.47;94.30
13434;BME280;6789;47.678;9.158;2023-03-21T23:01:48;96683.31;;;10.46;94.50
13434;BME280;6789;47.678;9.158;2023-03-21T23:07:14;96695.75;;;10.50;94.35
13434;BME280;6789;47.678;9.158;2023-03-21T23:12:48;96677.16;;;10.52;95.05
13434;BME280;6789;47.678;9.158;2023-03-21T23:18:06;96679.78;;;10.52;95.56
13434;BME280;6789;47.678;9.158;2023-03-21T23:22:58;96678.41;;;10.49;95.92
13434;BME280;6789;47.678;9.158;2023-03-21T23:27:49;96664.72;;;10.47;95.91
13434;BME280;6789;47.678;9.158;2023-03-21T23:32:41;96665.31;;;10.49;96.20
13434;BME280;6789;47.678;9.158;2023-03-21T23:37:33;96662.09;;;10.47;96.91
13434;BME280;6789;47.678;9.158;2023-03-21T23:42:28;96658.00;;;10.51;97.85
13434;BME280;6789;47.678;9.158;2023-03-21T23:47:20;96661.16;;;10.42;98.68
13434;BME280;6789;47.678;9.158;2023-03-21T23:52:12;96669.97;;;10.47;98.79
13434;BME280;6789;47.678;9.158;2023-03-21T23:57:04;96664.41;;;10.55;97.56
